createdAt,value
2023-03-08T00:01:56.056Z,96663.47
2023-03-08T00:04:22.637Z,96671.38
2023-03-08T00:06:49.264Z,96666.25
2023-03-08T00:09:15.834Z,96668.91
2023-03-08T00:11:42.414Z,96675.97
2023-03-08T00:14:08.903Z,96675.97
2023-03-08T00:16:35.545Z,96677.81
2023-03-08T00:19:02.068Z,96685.72
2023-03-08T00:21:28.779Z,96683.09
2023-03-08T00:23:55.366Z,96681.25
2023-03-08T00:26:22.269Z,96677.81
2023-03-08T00:28:48.884Z,96671.69
2023-03-08T00:31:15.711Z,96679.59
2023-03-08T00:33:42.478Z,96666.38
2023-03-08T00:36:27.632Z,96664.88
2023-03-08T00:38:59.574Z,96670.03
2023-03-08T00:41:26.162Z,96666.56
2023-03-08T00:43:52.744Z,96671.84
2023-03-08T00:46:19.576Z,96672.66
2023-03-08T00:48:46.490Z,96674.47
2023-03-08T00:51:16.192Z,96671.03
2023-03-08T00:53:42.871Z,96666.72
2023-03-08T00:56:09.781Z,96662.88
2023-03-08T00:58:38.537Z,96676.31
2023-03-08T01:01:06.645Z,96674.66
2023-03-08T01:03:33.510Z,96668.38
2023-03-08T01:06:06.842Z,96665.88
2023-03-08T01:08:33.938Z,96670.34
2023-03-08T01:11:01.920Z,96638.09
2023-03-08T01:13:31.937Z,96675.63
2023-03-08T01:15:58.810Z,96672.16
2023-03-08T01:18:25.774Z,96672.16
2023-03-08T01:21:00.857Z,96657.94
2023-03-08T01:23:28.582Z,96676.78
2023-03-08T01:26:02.938Z,96672.63
2023-03-08T01:28:30.016Z,96678.44
2023-03-08T01:31:05.756Z,96681.19
2023-03-08T01:33:33.522Z,96679.56
2023-03-08T01:36:02.335Z,96675.09
2023-03-08T01:38:29.063Z,96675.28
2023-03-08T01:41:00.478Z,96675.28
2023-03-08T01:43:30.503Z,96678.88
2023-03-08T01:46:17.223Z,96677.06
2023-03-08T01:48:59.200Z,96670.00
2023-03-08T01:51:52.175Z,96664.88
2023-03-08T01:54:39.800Z,96667.50
2023-03-08T01:57:26.651Z,96663.22
2023-03-08T01:59:58.587Z,96647.47
2023-03-08T02:02:31.481Z,96666.66
2023-03-08T02:04:58.217Z,96665.16
2023-03-08T02:07:26.619Z,96667.63
2023-03-08T02:09:53.537Z,96663.34
2023-03-08T02:12:21.535Z,96659.06
2023-03-08T02:14:48.242Z,96668.78
2023-03-08T02:17:14.834Z,96661.84
2023-03-08T02:19:46.727Z,96662.53
2023-03-08T02:22:19.893Z,96655.75
2023-03-08T02:24:46.746Z,96653.91
2023-03-08T02:27:20.568Z,96661.03
2023-03-08T02:29:47.730Z,96641.50
2023-03-08T02:32:15.974Z,96658.38
2023-03-08T02:34:42.911Z,96659.38
2023-03-08T02:37:09.453Z,96656.72
2023-03-08T02:39:36.497Z,96638.50
2023-03-08T02:42:03.184Z,96653.41
2023-03-08T02:44:29.778Z,96647.31
2023-03-08T02:49:27.132Z,96649.13
2023-03-08T02:51:54.008Z,96649.13
2023-03-08T02:54:21.249Z,96660.50
2023-03-08T02:56:47.815Z,96655.38
2023-03-08T02:59:14.513Z,96659.00
2023-03-08T03:01:43.483Z,96659.16
2023-03-08T03:04:10.052Z,96657.34
2023-03-08T03:06:36.667Z,96664.44
2023-03-08T03:09:07.993Z,96666.25
2023-03-08T03:11:35.287Z,96670.69
2023-03-08T03:14:02.175Z,96653.13
2023-03-08T03:16:34.048Z,96672.50
2023-03-08T03:19:00.705Z,96675.97
2023-03-08T03:21:27.522Z,96673.50
2023-03-08T03:23:55.341Z,96682.41
2023-03-08T03:26:27.781Z,96676.28
2023-03-08T03:28:58.074Z,96694.91
2023-03-08T03:31:28.102Z,96696.06
2023-03-08T03:33:54.885Z,96707.28
2023-03-08T03:36:24.426Z,96709.25
2023-03-08T03:38:51.797Z,96710.22
2023-03-08T03:41:21.779Z,96708.44
2023-03-08T03:43:52.352Z,96688.50
2023-03-08T03:46:21.153Z,96722.72
2023-03-08T03:48:51.290Z,96720.25
2023-03-08T03:51:22.374Z,96730.81
2023-03-08T03:53:55.970Z,96733.59
2023-03-08T03:56:25.677Z,96739.84
2023-03-08T03:58:57.762Z,96750.25
2023-03-08T04:01:29.528Z,96750.25
2023-03-08T04:04:04.209Z,96753.88
2023-03-08T04:06:35.065Z,96758.34
2023-03-08T04:09:06.242Z,96761.94
2023-03-08T04:11:38.870Z,96768.19
2023-03-08T04:14:09.917Z,96762.25
2023-03-08T04:16:38.927Z,96770.19
2023-03-08T04:19:13.056Z,96767.41
2023-03-08T04:21:46.669Z,96774.94
2023-03-08T04:24:15.546Z,96789.91
2023-03-08T04:26:42.197Z,96792.69
2023-03-08T04:29:12.235Z,96795.34
2023-03-08T04:31:39.600Z,96781.34
2023-03-08T04:34:11.032Z,96793.69
2023-03-08T04:36:38.185Z,96787.72
2023-03-08T04:39:05.040Z,96804.22
2023-03-08T04:41:31.703Z,96805.16
2023-03-08T04:44:07.133Z,96799.06
2023-03-08T04:46:41.386Z,96803.66
2023-03-08T04:49:11.235Z,96810.44
2023-03-08T04:51:42.526Z,96812.28
2023-03-08T04:54:10.341Z,96815.72
2023-03-08T04:56:42.495Z,96816.59
2023-03-08T04:59:10.894Z,96810.59
2023-03-08T05:01:37.506Z,96818.69
2023-03-08T05:04:04.340Z,96818.53
2023-03-08T05:06:38.133Z,96815.22
2023-03-08T05:09:06.172Z,96814.22
2023-03-08T05:11:35.868Z,96816.03
2023-03-08T05:14:03.217Z,96812.44
2023-03-08T05:16:30.033Z,96803.66
2023-03-08T05:18:56.826Z,96815.06
2023-03-08T05:21:27.807Z,96816.03
2023-03-08T05:24:00.461Z,96828.25
2023-03-08T05:26:30.426Z,96828.25
2023-03-08T05:29:01.293Z,96811.63
2023-03-08T05:31:28.855Z,96818.69
2023-03-08T05:33:57.688Z,96831.06
2023-03-08T05:36:31.967Z,96825.78
2023-03-08T05:38:59.166Z,96837.97
2023-03-08T05:41:34.584Z,96832.84
2023-03-08T05:44:02.204Z,96848.50
2023-03-08T05:46:32.105Z,96828.31
2023-03-08T05:49:01.534Z,96856.59
2023-03-08T05:51:31.486Z,96860.88
2023-03-08T05:53:58.164Z,96859.91
2023-03-08T05:56:25.375Z,96860.88
2023-03-08T05:59:06.519Z,96868.00
2023-03-08T06:01:33.371Z,96865.34
2023-03-08T06:04:09.695Z,96872.25
2023-03-08T06:06:39.601Z,96877.53
2023-03-08T06:09:06.337Z,96878.53
2023-03-08T06:11:35.330Z,96882.97
2023-03-08T06:14:02.942Z,96875.06
2023-03-08T06:16:32.128Z,96888.09
2023-03-08T06:18:58.702Z,96886.31
2023-03-08T06:21:26.298Z,96887.97
2023-03-08T06:23:59.375Z,96880.06
2023-03-08T06:26:26.334Z,96894.88
2023-03-08T06:28:52.852Z,96896.56
2023-03-08T06:31:20.713Z,96897.28
2023-03-08T06:33:47.369Z,96900.72
2023-03-08T06:36:21.112Z,96913.63
2023-03-08T06:38:49.780Z,96918.91
2023-03-08T06:41:18.370Z,96924.03
2023-03-08T06:43:48.979Z,96927.66
2023-03-08T06:46:18.607Z,96935.34
2023-03-08T06:48:48.054Z,96942.13
2023-03-08T06:51:19.271Z,96942.72
2023-03-08T06:53:46.874Z,96943.44
2023-03-08T06:56:18.085Z,96920.31
2023-03-08T06:58:45.510Z,96954.31
2023-03-08T07:01:13.396Z,96942.00
2023-03-08T07:03:40.118Z,96948.81
2023-03-08T07:06:09.633Z,96949.53
2023-03-08T07:08:38.158Z,96950.78
2023-03-08T07:11:06.610Z,96948.13
2023-03-08T07:13:33.347Z,96953.25
2023-03-08T07:15:59.892Z,96948.69
2023-03-08T07:18:26.711Z,96955.31
2023-03-08T07:20:55.697Z,96962.00
2023-03-08T07:23:22.649Z,96951.06
2023-03-08T07:25:49.183Z,96966.69
2023-03-08T07:28:15.918Z,96960.16
2023-03-08T07:30:50.540Z,96936.81
2023-03-08T07:33:20.318Z,96941.81
2023-03-08T07:35:47.230Z,96934.44
2023-03-08T07:38:14.524Z,96937.63
2023-03-08T07:40:41.186Z,96928.59
2023-03-08T07:43:07.894Z,96936.19
2023-03-08T07:45:54.789Z,96943.44
2023-03-08T07:48:21.410Z,96966.72
2023-03-08T07:50:48.842Z,96951.75
2023-03-08T07:53:15.426Z,96962.16
2023-03-08T07:55:44.944Z,96963.81
2023-03-08T07:58:11.500Z,96980.47
2023-03-08T08:00:38.033Z,96981.84
2023-03-08T08:03:04.677Z,96977.25
2023-03-08T08:05:31.266Z,96981.44
2023-03-08T08:07:57.972Z,96993.50
2023-03-08T08:10:24.461Z,96982.81
2023-03-08T08:12:51.336Z,97002.00
2023-03-08T08:15:19.119Z,96985.16
2023-03-08T08:17:45.673Z,96999.88
2023-03-08T08:20:12.330Z,97002.50
2023-03-08T08:22:38.947Z,97006.00
2023-03-08T08:25:06.776Z,97004.19
2023-03-08T08:27:34.256Z,97010.16
2023-03-08T08:30:00.871Z,97007.50
2023-03-08T08:32:27.532Z,96983.59
2023-03-08T08:34:54.055Z,96989.72
2023-03-08T08:37:20.960Z,96968.91
2023-03-08T08:39:47.557Z,96977.34
2023-03-08T08:42:14.193Z,96962.66
2023-03-08T08:44:40.840Z,96960.56
2023-03-08T08:47:07.498Z,96985.81
2023-03-08T08:49:34.355Z,96984.84
2023-03-08T08:52:00.919Z,96979.41
2023-03-08T08:54:27.613Z,96981.91
2023-03-08T08:56:54.334Z,96987.88
2023-03-08T08:59:20.970Z,96953.66
2023-03-08T09:01:47.906Z,96984.09
2023-03-08T09:04:16.655Z,96970.97
2023-03-08T09:06:43.597Z,96975.06
2023-03-08T09:09:10.129Z,96982.00
2023-03-08T09:11:48.499Z,96970.91
2023-03-08T09:14:20.198Z,96981.84
2023-03-08T09:16:46.902Z,96980.88
2023-03-08T09:19:13.604Z,96985.03
2023-03-08T09:21:40.248Z,96977.81
2023-03-08T09:24:09.370Z,96968.38
2023-03-08T09:26:36.002Z,96974.72
2023-03-08T09:29:06.030Z,96964.03
2023-03-08T09:31:37.133Z,96960.41
2023-03-08T09:34:09.066Z,96970.00
2023-03-08T09:36:42.361Z,96972.63
2023-03-08T09:39:11.133Z,96971.50
2023-03-08T09:41:54.701Z,96983.72
2023-03-08T09:44:45.662Z,96985.25
2023-03-08T09:47:41.758Z,96985.09
2023-03-08T09:50:11.812Z,96981.47
2023-03-08T09:53:14.489Z,96976.84
2023-03-08T09:56:14.884Z,96977.53
2023-03-08T09:58:46.866Z,96984.50
2023-03-08T10:01:34.924Z,96971.97
2023-03-08T10:04:13.336Z,96973.63
2023-03-08T10:07:08.201Z,96976.94
2023-03-08T10:09:41.553Z,96967.06
2023-03-08T10:12:13.374Z,96971.22
2023-03-08T10:14:42.914Z,96966.63
2023-03-08T10:17:18.333Z,96970.63
2023-03-08T10:20:31.388Z,96968.53
2023-03-08T10:23:09.360Z,96969.22
2023-03-08T10:25:37.047Z,96971.56
2023-03-08T10:28:09.963Z,96973.25
2023-03-08T10:30:44.761Z,96968.09
2023-03-08T10:33:14.560Z,96965.69
2023-03-08T10:36:09.421Z,96953.97
2023-03-08T10:38:37.200Z,96951.06
2023-03-08T10:41:13.355Z,96955.19
2023-03-08T10:43:46.850Z,96961.84
2023-03-08T10:46:19.259Z,96951.09
2023-03-08T10:48:49.527Z,96956.09
2023-03-08T10:51:29.235Z,96949.84
2023-03-08T10:54:04.905Z,96948.88
2023-03-08T10:56:39.106Z,96940.78
2023-03-08T10:59:16.345Z,96935.47
2023-03-08T11:01:52.332Z,96934.50
2023-03-08T11:04:27.312Z,96931.69
2023-03-08T11:06:54.130Z,96933.38
2023-03-08T11:09:28.687Z,96929.75
2023-03-08T11:11:57.069Z,96914.63
2023-03-08T11:14:25.055Z,96932.91
2023-03-08T11:17:13.190Z,96931.91
2023-03-08T11:20:11.487Z,96927.31
2023-03-08T11:23:04.004Z,96919.22
2023-03-08T11:25:42.991Z,96921.72
2023-03-08T11:28:30.991Z,96913.63
2023-03-08T11:31:07.327Z,96862.19
2023-03-08T11:33:54.364Z,96907.38
2023-03-08T11:36:39.670Z,96907.91
2023-03-08T11:39:24.674Z,96913.19
2023-03-08T11:42:27.076Z,96911.06
2023-03-08T11:45:22.723Z,96910.91
2023-03-08T11:48:04.192Z,96908.91
2023-03-08T11:50:36.085Z,96909.44
2023-03-08T11:53:18.048Z,96897.72
2023-03-08T11:55:47.460Z,96902.19
2023-03-08T11:58:38.302Z,96901.19
2023-03-08T12:01:23.149Z,96898.56
2023-03-08T12:03:53.811Z,96904.66
2023-03-08T12:06:30.808Z,96898.41
2023-03-08T12:09:08.087Z,96897.56
2023-03-08T12:11:48.218Z,96895.22
2023-03-08T12:14:31.217Z,96909.59
2023-03-08T12:17:19.190Z,96895.03
2023-03-08T12:19:48.206Z,96896.06
2023-03-08T12:22:27.001Z,96893.56
2023-03-08T12:25:06.477Z,96879.69
2023-03-08T12:27:43.397Z,96871.88
2023-03-08T12:30:10.015Z,96866.59
2023-03-08T12:32:42.303Z,96864.13
2023-03-08T12:35:24.089Z,96859.69
2023-03-08T12:37:58.975Z,96857.69
2023-03-08T12:40:27.787Z,96853.38
2023-03-08T12:43:10.098Z,96848.78
2023-03-08T12:45:39.284Z,96845.16
2023-03-08T12:48:14.719Z,96855.56
2023-03-08T12:51:00.258Z,96853.78
2023-03-08T12:53:29.683Z,96859.88
2023-03-08T12:56:00.822Z,96842.19
2023-03-08T12:58:27.486Z,96843.03
2023-03-08T13:01:04.318Z,96846.47
2023-03-08T13:03:41.131Z,96845.50
2023-03-08T13:06:51.588Z,96842.84
2023-03-08T13:09:42.438Z,96843.72
2023-03-08T13:12:08.989Z,96843.72
2023-03-08T13:14:42.315Z,96840.91
2023-03-08T13:17:59.114Z,96836.44
2023-03-08T13:20:41.997Z,96831.97
2023-03-08T13:23:15.104Z,96832.81
2023-03-08T13:25:53.822Z,96829.16
2023-03-08T13:28:23.729Z,96826.53
2023-03-08T13:30:58.777Z,96830.00
2023-03-08T13:33:31.309Z,96809.34
2023-03-08T13:36:03.291Z,96827.34
2023-03-08T13:38:35.583Z,96816.78
2023-03-08T13:41:02.455Z,96819.41
2023-03-08T13:43:31.727Z,96821.06
2023-03-08T13:46:04.290Z,96816.63
2023-03-08T13:48:35.023Z,96814.97
2023-03-08T13:51:02.950Z,96804.38
2023-03-08T13:53:36.342Z,96802.56
2023-03-08T13:56:06.841Z,96801.59
2023-03-08T13:58:36.840Z,96790.03
2023-03-08T14:01:19.465Z,96786.38
2023-03-08T14:03:46.986Z,96775.81
2023-03-08T14:06:29.840Z,96776.63
2023-03-08T14:09:03.220Z,96780.75
2023-03-08T14:11:32.943Z,96765.88
2023-03-08T14:14:01.998Z,96775.31
2023-03-08T14:16:37.031Z,96766.28
2023-03-08T14:19:30.049Z,96778.66
2023-03-08T14:22:00.895Z,96766.28
2023-03-08T14:24:35.615Z,96761.00
2023-03-08T14:27:26.832Z,96757.50
2023-03-08T14:30:24.054Z,96751.22
2023-03-08T14:33:09.687Z,96740.66
2023-03-08T14:35:41.299Z,96740.66
2023-03-08T14:38:30.204Z,96733.53
2023-03-08T14:40:58.727Z,96737.03
2023-03-08T14:43:27.481Z,96731.72
2023-03-08T14:46:05.569Z,96712.38
2023-03-08T14:48:34.583Z,96709.72
2023-03-08T14:51:06.360Z,96700.97
2023-03-08T14:53:39.821Z,96687.22
2023-03-08T14:56:09.425Z,96702.63
2023-03-08T14:58:40.208Z,96699.16
2023-03-08T15:01:07.062Z,96691.81
2023-03-08T15:03:33.881Z,96684.56
2023-03-08T15:06:10.934Z,96668.38
2023-03-08T15:08:40.801Z,96691.88
2023-03-08T15:11:07.750Z,96684.94
2023-03-08T15:13:34.293Z,96683.13
2023-03-08T15:16:00.896Z,96683.13
2023-03-08T15:18:27.526Z,96668.09
2023-03-08T15:20:54.167Z,96682.13
2023-03-08T15:23:24.798Z,96696.19
2023-03-08T15:25:52.043Z,96681.97
2023-03-08T15:28:20.767Z,96681.13
2023-03-08T15:30:47.532Z,96680.31
2023-03-08T15:33:14.078Z,96681.31
2023-03-08T15:35:41.361Z,96668.38
2023-03-08T15:38:07.998Z,96704.13
2023-03-08T15:40:34.888Z,96689.06
2023-03-08T15:43:01.569Z,96693.53
2023-03-08T15:45:28.735Z,96689.06
2023-03-08T15:48:03.327Z,96698.66
2023-03-08T15:50:30.961Z,96691.72
2023-03-08T15:52:57.801Z,96698.66
2023-03-08T15:55:26.172Z,96700.50
2023-03-08T15:57:53.100Z,96695.53
2023-03-08T16:00:22.296Z,96692.69
2023-03-08T16:02:49.526Z,96688.25
2023-03-08T16:05:19.542Z,96689.91
2023-03-08T16:07:53.143Z,96701.66
2023-03-08T16:10:19.891Z,96702.63
2023-03-08T16:12:46.391Z,96688.56
2023-03-08T16:15:13.054Z,96678.09
2023-03-08T16:22:07.917Z,96700.28
2023-03-08T16:24:34.499Z,96692.50
2023-03-08T16:27:01.105Z,96688.03
2023-03-08T16:29:28.155Z,96680.09
2023-03-08T16:31:54.647Z,96677.44
2023-03-08T16:34:22.049Z,96685.38
2023-03-08T16:36:52.412Z,96671.16
2023-03-08T16:39:19.227Z,96682.75
2023-03-08T16:41:45.767Z,96690.84
2023-03-08T16:44:29.577Z,96694.16
2023-03-08T16:46:59.494Z,96687.91
2023-03-08T16:49:28.403Z,96686.22
2023-03-08T16:51:56.028Z,96687.03
2023-03-08T16:54:23.342Z,96701.97
2023-03-08T16:56:50.487Z,96696.66
2023-03-08T16:59:17.470Z,96706.25
2023-03-08T17:01:47.240Z,96691.69
2023-03-08T17:04:14.436Z,96706.09
2023-03-08T17:06:44.077Z,96691.22
2023-03-08T17:09:12.065Z,96689.41
2023-03-08T17:11:39.098Z,96692.06
2023-03-08T17:14:08.668Z,96688.56
2023-03-08T17:16:36.054Z,96686.75
2023-03-08T17:19:05.253Z,96669.34
2023-03-08T17:21:32.302Z,96681.66
2023-03-08T17:23:59.942Z,96658.94
2023-03-08T17:26:26.781Z,96672.16
2023-03-08T17:28:54.581Z,96675.16
2023-03-08T17:31:26.147Z,96651.78
2023-03-08T17:33:52.793Z,96669.19
2023-03-08T17:36:20.093Z,96655.31
2023-03-08T17:38:46.870Z,96657.78
2023-03-08T17:41:15.194Z,96644.72
2023-03-08T17:43:41.877Z,96655.44
2023-03-08T17:46:12.910Z,96652.00
2023-03-08T17:48:39.864Z,96647.50
2023-03-08T17:51:09.151Z,96638.75
2023-03-08T17:53:37.685Z,96617.78
2023-03-08T17:56:09.615Z,96617.91
2023-03-08T17:58:37.157Z,96617.91
2023-03-08T18:01:09.300Z,96625.03
2023-03-08T18:03:39.606Z,96620.72
2023-03-08T18:06:07.815Z,96607.69
2023-03-08T18:08:35.564Z,96581.69
2023-03-08T18:11:02.528Z,96604.19
2023-03-08T18:13:29.062Z,96596.44
2023-03-08T18:15:58.083Z,96593.97
2023-03-08T18:18:27.095Z,96591.31
2023-03-08T18:20:57.112Z,96580.22
2023-03-08T18:23:31.670Z,96586.50
2023-03-08T18:26:00.014Z,96587.34
2023-03-08T18:28:28.106Z,96579.72
2023-03-08T18:30:54.696Z,96576.09
2023-03-08T18:33:22.705Z,96584.03
2023-03-08T18:35:57.508Z,96578.06
2023-03-08T18:38:27.847Z,96572.13
2023-03-08T18:40:54.384Z,96563.38
2023-03-08T18:43:22.051Z,96554.75
2023-03-08T18:45:51.003Z,96552.78
2023-03-08T18:48:17.502Z,96549.97
2023-03-08T18:50:44.529Z,96549.84
2023-03-08T18:53:15.633Z,96548.00
2023-03-08T18:55:55.616Z,96542.72
2023-03-08T18:58:24.416Z,96523.56
2023-03-08T19:00:51.549Z,96530.00
2023-03-08T19:03:18.579Z,96531.00
2023-03-08T19:05:45.398Z,96530.69
2023-03-08T19:08:12.011Z,96510.69
2023-03-08T19:10:38.584Z,96509.50
2023-03-08T19:13:05.172Z,96484.88
2023-03-08T19:15:36.478Z,96510.69
2023-03-08T19:18:03.305Z,96496.78
2023-03-08T19:20:30.082Z,96498.44
2023-03-08T19:23:01.258Z,96501.91
2023-03-08T19:25:31.776Z,96492.50
2023-03-08T19:27:59.652Z,96495.97
2023-03-08T19:30:28.329Z,96479.44
2023-03-08T19:32:56.324Z,96483.25
2023-03-08T19:35:23.093Z,96460.44
2023-03-08T19:37:50.573Z,96478.63
2023-03-08T19:40:17.538Z,96483.25
2023-03-08T19:42:44.203Z,96476.13
2023-03-08T19:45:11.719Z,96463.06
2023-03-08T19:47:38.374Z,96471.69
2023-03-08T19:50:05.412Z,96466.53
2023-03-08T19:52:32.084Z,96470.84
2023-03-08T19:54:58.984Z,96464.75
2023-03-08T19:57:25.700Z,96461.78
2023-03-08T19:59:52.522Z,96465.56
2023-03-08T20:02:19.322Z,96450.69
2023-03-08T20:04:46.276Z,96454.00
2023-03-08T20:07:14.299Z,96446.88
2023-03-08T20:09:42.739Z,96444.22
2023-03-08T20:12:12.197Z,96442.44
2023-03-08T20:14:44.036Z,96440.59
2023-03-08T20:17:10.791Z,96442.44
2023-03-08T20:19:37.359Z,96431.88
2023-03-08T20:22:04.641Z,96409.22
2023-03-08T20:24:31.205Z,96431.00
2023-03-08T20:26:59.259Z,96423.25
2023-03-08T20:29:28.079Z,96420.63
2023-03-08T20:31:58.239Z,96410.41
2023-03-08T20:34:28.012Z,96410.53
2023-03-08T20:36:54.550Z,96418.31
2023-03-08T20:39:22.521Z,96407.75
2023-03-08T20:41:49.261Z,96400.31
2023-03-08T20:44:15.846Z,96405.25
2023-03-08T20:46:42.622Z,96406.91
2023-03-08T20:49:11.138Z,96386.91
2023-03-08T20:51:37.883Z,96383.47
2023-03-08T20:54:06.136Z,96396.34
2023-03-08T20:56:32.722Z,96391.03
2023-03-08T20:59:00.516Z,96391.22
2023-03-08T21:01:30.560Z,96389.88
2023-03-08T21:03:57.164Z,96381.13
2023-03-08T21:06:27.045Z,96381.94
2023-03-08T21:08:54.191Z,96374.88
2023-03-08T21:11:21.538Z,96375.69
2023-03-08T21:13:49.956Z,96371.56
2023-03-08T21:16:18.786Z,96371.06
2023-03-08T21:18:52.767Z,96365.78
2023-03-08T21:21:32.947Z,96368.25
2023-03-08T21:24:07.087Z,96358.50
2023-03-08T21:26:34.520Z,96363.78
2023-03-08T21:29:04.490Z,96358.34
2023-03-08T21:31:33.271Z,96357.34
2023-03-08T21:34:02.761Z,96347.59
2023-03-08T21:36:30.182Z,96351.03
2023-03-08T21:38:58.205Z,96349.06
2023-03-08T21:41:31.039Z,96347.25
2023-03-08T21:43:58.508Z,96344.63
2023-03-08T21:46:25.538Z,96356.81
2023-03-08T21:48:52.427Z,96358.47
2023-03-08T21:51:18.986Z,96355.81
2023-03-08T21:53:45.889Z,96343.44
2023-03-08T21:56:16.078Z,96343.44
2023-03-08T21:58:43.195Z,96331.72
2023-03-08T22:01:36.320Z,96336.31
2023-03-08T22:04:05.035Z,96310.25
2023-03-08T22:06:32.180Z,96308.94
2023-03-08T22:08:58.955Z,96333.50
2023-03-08T22:11:28.330Z,96326.25
2023-03-08T22:13:57.207Z,96320.13
2023-03-08T22:16:24.526Z,96336.81
2023-03-08T22:18:53.509Z,96325.44
2023-03-08T22:21:20.647Z,96323.59
2023-03-08T22:23:51.796Z,96326.25
2023-03-08T22:26:19.087Z,96319.97
2023-03-08T22:28:46.135Z,96323.59
2023-03-08T22:31:15.365Z,96305.47
2023-03-08T22:33:42.197Z,96318.97
2023-03-08T22:36:11.671Z,96330.38
2023-03-08T22:38:38.960Z,96323.28
2023-03-08T22:41:13.651Z,96321.44
2023-03-08T22:43:41.102Z,96323.41
2023-03-08T22:46:16.145Z,96326.72
2023-03-08T22:48:44.597Z,96309.56
2023-03-08T22:51:12.272Z,96331.22
2023-03-08T22:53:40.215Z,96324.09
2023-03-08T22:56:08.502Z,96321.44
2023-03-08T22:58:35.094Z,96327.53
2023-03-08T23:02:46.192Z,96316.97
2023-03-08T23:05:15.286Z,96316.16
2023-03-08T23:07:44.729Z,96319.59
2023-03-08T23:10:12.868Z,96309.06
2023-03-08T23:12:39.381Z,96319.47
2023-03-08T23:15:08.275Z,96288.13
2023-03-08T23:17:35.170Z,96312.22
2023-03-08T23:20:01.978Z,96315.97
2023-03-08T23:22:28.480Z,96313.31
2023-03-08T23:24:55.198Z,96304.75
2023-03-08T23:27:21.732Z,96302.75
2023-03-08T23:29:52.268Z,96319.47
2023-03-08T23:32:18.944Z,96293.53
2023-03-08T23:34:45.463Z,96321.25
2023-03-08T23:37:12.075Z,96313.31
2023-03-08T23:39:38.710Z,96301.16
2023-03-08T23:42:05.963Z,96308.03
2023-03-08T23:44:32.518Z,96305.09
2023-03-08T23:46:59.420Z,96304.09
2023-03-08T23:49:25.942Z,96303.78
2023-03-08T23:51:52.504Z,96300.28
2023-03-08T23:54:19.035Z,96305.41
2023-03-08T23:56:45.646Z,96283.94
2023-03-08T23:59:18.884Z,96287.94
